Time;durP1;ratioP1;P1;durP2;ratioP2;P2;SDS_P1;SDS_P2;PMS_P1;PMS_P2;Temp;Humidity;BMP_temperature;BMP_pressure;BME280_temperature;BME280_humidity;BME280_pressure;Samples;Min_cycle;Max_cycle;Signal;HPM_P1;HPM_P2
2022/12/23 00:01:26;;;;;;;16.87;3.90;;;;;;;11.93;100.00;102554.91;5020300;28;20497;-87
2022/12/23 00:03:58;;;;;;;12.43;4.03;;;;;;;12.07;100.00;102553.50;5037642;28;20509;-87
2022/12/23 00:06:26;;;;;;;14.17;3.83;;;;;;;12.09;100.00;102548.72;5039693;28;20441;-88
2022/12/23 00:08:56;;;;;;;10.67;3.57;;;;;;;12.13;100.00;102552.84;5024178;28;21029;-89
2022/12/23 00:11:26;;;;;;;7.23;2.80;;;;;;;12.18;100.00;102558.72;5024528;28;20437;-88
2022/12/23 00:16:49;;;;;;;16.43;5.60;;;;;;;12.19;100.00;102546.72;5033109;28;20442;-88
2022/12/23 00:19:17;;;;;;;16.87;6.07;;;;;;;12.20;100.00;102553.94;5004462;28;20685;-88
2022/12/23 00:21:47;;;;;;;14.47;5.93;;;;;;;12.15;100.00;102550.81;5004117;28;20514;-88
2022/12/23 00:24:16;;;;;;;10.47;3.40;;;;;;;12.19;100.00;102548.59;5005102;28;20478;-88
2022/12/23 00:26:43;;;;;;;12.07;4.40;;;;;;;12.15;100.00;102547.19;5017526;28;20822;-88
2022/12/23 00:29:12;;;;;;;25.13;7.67;;;;;;;12.19;100.00;102549.47;5033753;28;20449;-87
2022/12/23 00:31:40;;;;;;;26.70;8.50;;;;;;;12.20;100.00;102548.44;5074494;28;20429;-87
2022/12/23 00:34:08;;;;;;;19.37;8.17;;;;;;;12.18;100.00;102546.88;5043864;28;20482;-88
2022/12/23 00:36:37;;;;;;;26.67;10.80;;;;;;;12.17;100.00;102537.81;5043850;28;20471;-87
2022/12/23 00:44:40;;;;;;;23.30;8.53;;;;;;;12.20;100.00;102542.97;5072737;28;21067;-88
2022/12/23 00:49:40;;;;;;;28.33;8.23;;;;;;;12.13;100.00;102530.91;5023565;28;20446;-88
2022/12/23 00:49:58;;;;;;;18.10;3.60;;;;;;;12.22;100.00;102560.13;5045905;28;20452;-88
2022/12/23 00:52:27;;;;;;;17.33;4.53;;;;;;;12.14;100.00;102546.34;5020272;28;20434;-88
2022/12/23 00:54:54;;;;;;;15.53;3.30;;;;;;;12.14;100.00;102532.63;5033283;28;20949;-88
2022/12/23 00:57:24;;;;;;;13.80;5.27;;;;;;;12.16;100.00;102536.09;5046098;28;20504;-88
2022/12/23 00:59:53;;;;;;;34.73;10.90;;;;;;;12.17;100.00;102536.94;5058905;28;20437;-88
2022/12/23 01:07:57;;;;;;;36.53;7.10;;;;;;;12.12;100.00;102536.59;5078675;28;20531;-88
2022/12/23 01:10:25;;;;;;;25.33;7.33;;;;;;;12.08;100.00;102533.31;5059450;28;20483;-87
2022/12/23 01:12:55;;;;;;;32.63;9.97;;;;;;;12.10;100.00;102532.13;5042466;28;20543;-88
2022/12/23 01:15:24;;;;;;;24.60;10.87;;;;;;;12.05;100.00;102522.66;5038663;28;20525;-87
2022/12/23 01:17:54;;;;;;;21.43;7.50;;;;;;;12.00;100.00;102514.03;5055320;28;20458;-87
2022/12/23 01:20:22;;;;;;;18.23;5.40;;;;;;;12.03;100.00;102519.22;5043713;28;20445;-88
2022/12/23 01:22:50;;;;;;;16.73;5.00;;;;;;;12.02;100.00;102512.00;5038521;28;20477;-87
2022/12/23 01:25:18;;;;;;;14.20;5.30;;;;;;;11.99;100.00;102510.44;5051306;28;20472;-88
2022/12/23 01:27:45;;;;;;;22.60;7.37;;;;;;;11.98;100.00;102502.38;5042778;28;20969;-88
2022/12/23 01:30:16;;;;;;;24.37;7.73;;;;;;;12.01;100.00;102500.19;5041375;28;20451;-89
2022/12/23 01:32:44;;;;;;;18.00;6.27;;;;;;;11.99;100.00;102495.88;5055877;28;20495;-88
2022/12/23 01:35:11;;;;;;;19.50;7.40;;;;;;;11.99;100.00;102482.19;5039174;28;20434;-87
2022/12/23 01:37:39;;;;;;;24.50;7.30;;;;;;;11.91;100.00;102477.53;5026389;28;20446;-87
2022/12/23 01:40:08;;;;;;;21.20;6.17;;;;;;;11.95;100.00;102475.28;5059894;28;20926;-88
2022/12/23 01:42:45;;;;;;;19.87;6.30;;;;;;;11.92;100.00;102470.16;5046649;28;20965;-88
2022/12/23 01:45:27;;;;;;;17.37;5.90;;;;;;;11.94;100.00;102481.78;5055824;28;20783;-87
2022/12/23 01:48:18;;;;;;;19.73;4.63;;;;;;;11.88;100.00;102477.84;5040046;28;20441;-89
2022/12/23 01:50:59;;;;;;;18.57;4.50;;;;;;;11.79;100.00;102466.97;5068205;28;20445;-88
2022/12/23 01:56:45;;;;;;;19.17;4.37;;;;;;;11.79;100.00;102466.97;5073885;28;20475;-88
2022/12/23 02:03:40;;;;;;;14.20;4.67;;;;;;;11.77;100.00;102465.22;5048259;28;20413;-88
2022/12/23 02:04:49;;;;;;;12.83;3.57;;;;;;;11.74;100.00;102448.22;5098044;28;20484;-88
2022/12/23 02:10:06;;;;;;;14.90;5.67;;;;;;;11.74;100.00;102454.56;5057578;28;20442;-88
2022/12/23 02:12:47;;;;;;;16.50;4.30;;;;;;;11.69;100.00;102456.94;5023258;28;20517;-88
2022/12/23 02:18:39;;;;;;;65.03;5.17;;;;;;;11.55;100.00;102435.56;5059063;28;20966;-87
2022/12/23 02:21:16;;;;;;;12.33;4.40;;;;;;;11.66;100.00;102467.34;5091168;28;20808;-87
2022/12/23 02:23:57;;;;;;;19.00;4.20;;;;;;;11.67;100.00;102480.88;5055940;28;20473;-88
2022/12/23 02:26:46;;;;;;;13.57;4.70;;;;;;;11.68;100.00;102493.56;5054802;28;20487;-88
2022/12/23 02:29:26;;;;;;;15.90;3.60;;;;;;;11.71;100.00;102495.13;5055951;28;20464;-88
2022/12/23 02:32:13;;;;;;;9.20;4.70;;;;;;;11.73;100.00;102496.69;5059004;28;20441;-88
2022/12/23 02:35:37;;;;;;;8.27;3.73;;;;;;;11.76;100.00;102501.84;5074424;28;20500;-88
2022/12/23 02:38:28;;;;;;;12.70;2.47;;;;;;;11.74;100.00;102492.91;5014427;28;20527;-88
2022/12/23 02:41:09;;;;;;;8.33;2.60;;;;;;;11.80;100.00;102493.34;5031569;28;20450;-87
2022/12/23 02:43:46;;;;;;;8.43;2.80;;;;;;;11.86;100.00;102507.25;4993048;28;20483;-88
2022/12/23 02:46:23;;;;;;;5.50;2.60;;;;;;;11.88;100.00;102493.41;5030328;28;20974;-88
2022/12/23 02:48:57;;;;;;;10.30;2.37;;;;;;;11.86;100.00;102490.81;5014351;28;20432;-88
2022/12/23 02:51:29;;;;;;;6.80;2.03;;;;;;;11.89;100.00;102484.16;4998864;28;20437;-87
2022/12/23 02:54:01;;;;;;;4.90;2.57;;;;;;;11.90;100.00;102503.19;5030473;28;20524;-89
2022/12/23 02:56:30;;;;;;;3.50;1.87;;;;;;;11.90;100.00;102502.34;5014435;28;20423;-87
2022/12/23 02:59:15;;;;;;;3.33;1.90;;;;;;;11.96;100.00;102512.63;4995359;28;20464;-89
2022/12/23 03:01:44;;;;;;;4.90;2.30;;;;;;;11.94;100.00;102511.94;5015942;28;20527;-87
2022/12/23 03:04:13;;;;;;;4.47;1.93;;;;;;;11.93;100.00;102502.03;5015556;28;20484;-87
2022/12/23 03:06:45;;;;;;;5.53;1.77;;;;;;;11.97;100.00;102508.88;5016984;28;20463;-87
2022/12/23 03:09:43;;;;;;;3.57;1.97;;;;;;;11.82;100.00;102474.84;5014455;28;20440;-88
2022/12/23 03:12:31;;;;;;;6.60;2.33;;;;;;;11.92;100.00;102486.59;5042546;28;20816;-88
2022/12/23 03:15:41;;;;;;;9.10;2.07;;;;;;;11.90;100.00;102488.63;5048629;28;20434;-88
2022/12/23 03:18:31;;;;;;;4.17;2.07;;;;;;;11.91;100.00;102493.97;4977597;28;20921;-88
2022/12/23 03:21:08;;;;;;;10.40;3.17;;;;;;;11.94;100.00;102479.03;4958305;28;20442;-88
2022/12/23 03:23:39;;;;;;;6.93;3.10;;;;;;;11.92;100.00;102471.03;4957780;28;20589;-89
2022/12/23 03:26:15;;;;;;;6.27;2.77;;;;;;;12.02;100.00;102479.97;4918268;29;20475;-87
2022/12/23 03:29:22;;;;;;;11.67;3.23;;;;;;;12.02;100.00;102469.03;4923908;29;20437;-87
2022/12/23 03:31:51;;;;;;;14.17;3.63;;;;;;;12.08;100.00;102473.00;4974320;28;20442;-88
2022/12/23 03:34:22;;;;;;;23.33;4.50;;;;;;;12.05;100.00;102471.44;4958351;28;21052;-88
2022/12/23 03:36:51;;;;;;;22.93;4.53;;;;;;;12.08;100.00;102467.53;4974306;28;20461;-88
2022/12/23 03:39:24;;;;;;;19.73;3.97;;;;;;;12.08;100.00;102462.91;4957384;28;20845;-88
2022/12/23 03:41:54;;;;;;;18.80;4.10;;;;;;;12.10;100.00;102465.47;4940946;28;20448;-88
2022/12/23 03:44:29;;;;;;;40.93;5.07;;;;;;;12.16;100.00;102470.28;4958254;28;20481;-87
2022/12/23 03:47:18;;;;;;;28.57;5.27;;;;;;;12.13;100.00;102470.63;4958397;28;20449;-88
2022/12/23 03:49:50;;;;;;;17.33;3.90;;;;;;;12.26;100.00;102476.53;4995878;28;20443;-88
2022/12/23 03:53:00;;;;;;;26.03;4.37;;;;;;;12.34;100.00;102467.47;5053710;28;20456;-87
2022/12/23 03:55:36;;;;;;;14.97;3.20;;;;;;;12.35;100.00;102467.31;5061797;28;20444;-88
2022/12/23 03:58:33;;;;;;;31.00;4.80;;;;;;;12.36;100.00;102451.72;5039890;28;20861;-88
2022/12/23 04:01:19;;;;;;;15.37;3.90;;;;;;;12.37;100.00;102459.81;5048807;28;20845;-88
2022/12/23 04:04:27;;;;;;;17.63;3.60;;;;;;;12.36;100.00;102459.97;5057162;28;20472;-88
2022/12/23 04:06:59;;;;;;;16.90;3.43;;;;;;;12.36;100.00;102459.97;5054198;28;20434;-88
2022/12/23 04:09:28;;;;;;;15.93;2.30;;;;;;;12.32;100.00;102462.16;5036917;28;20446;-88
2022/12/23 04:11:57;;;;;;;13.47;2.47;;;;;;;12.22;100.00;102452.34;5051214;28;20454;-88
2022/12/23 04:14:26;;;;;;;10.77;2.80;;;;;;;12.23;100.00;102448.59;5057387;28;20442;-88
2022/12/23 04:16:57;;;;;;;10.63;2.20;;;;;;;12.19;100.00;102453.53;5020515;28;20438;-88
2022/12/23 04:19:25;;;;;;;7.00;1.80;;;;;;;12.14;100.00;102444.94;5027257;28;20453;-88
2022/12/23 04:21:56;;;;;;;7.93;1.70;;;;;;;12.15;100.00;102451.28;5035937;28;20504;-89
2022/12/23 04:24:30;;;;;;;5.67;2.20;;;;;;;12.14;100.00;102450.41;5026331;28;20532;-89
2022/12/23 04:26:59;;;;;;;6.37;1.97;;;;;;;12.13;100.00;102443.22;5056705;28;20472;-88
2022/12/23 04:29:29;;;;;;;7.03;1.80;;;;;;;11.99;100.00;102430.13;5058588;28;20499;-88
2022/12/23 04:32:06;;;;;;;8.73;1.70;;;;;;;12.04;100.00;102444.19;5073353;28;20821;-88
2022/12/23 04:34:33;;;;;;;10.70;1.90;;;;;;;12.01;100.00;102444.50;5063220;28;20448;-88
2022/12/23 04:37:01;;;;;;;7.70;1.63;;;;;;;12.03;100.00;102447.94;5059762;28;20445;-88
2022/12/23 04:39:29;;;;;;;7.03;1.63;;;;;;;11.98;100.00;102444.84;5039801;28;20445;-88
2022/12/23 04:41:57;;;;;;;4.10;1.70;;;;;;;12.00;100.00;102454.63;5040036;28;20434;-88
2022/12/23 04:44:24;;;;;;;11.70;1.90;;;;;;;12.01;100.00;102455.47;5043184;28;20468;-88
2022/12/23 04:46:55;;;;;;;3.80;1.87;;;;;;;12.02;100.00;102454.47;5060446;28;20477;-88
2022/12/23 04:49:25;;;;;;;5.07;1.70;;;;;;;12.00;100.00;102445.53;5059674;28;20440;-88
2022/12/23 04:51:53;;;;;;;4.87;1.70;;;;;;;11.98;100.00;102447.56;5059593;28;20487;-88
2022/12/23 04:54:22;;;;;;;5.90;1.83;;;;;;;12.01;100.00;102452.72;5055633;28;20445;-88
2022/12/23 04:56:50;;;;;;;4.33;1.77;;;;;;;12.00;100.00;102440.06;5055298;28;20448;-88
2022/12/23 04:59:18;;;;;;;3.90;1.23;;;;;;;12.01;100.00;102439.03;5038217;28;20576;-89
2022/12/23 05:01:48;;;;;;;4.23;1.40;;;;;;;11.96;100.00;102420.31;5056084;28;20442;-88
2022/12/23 05:04:16;;;;;;;3.40;1.80;;;;;;;12.03;100.00;102432.38;5073112;28;20480;-87
2022/12/23 05:06:45;;;;;;;5.27;2.00;;;;;;;12.05;100.00;102424.84;5056003;28;20437;-88
2022/12/23 05:09:15;;;;;;;12.13;2.20;;;;;;;11.99;100.00;102403.56;5088357;28;20437;-88
2022/12/23 05:11:42;;;;;;;4.90;2.00;;;;;;;12.01;100.00;102404.28;5055110;28;20811;-88
2022/12/23 05:14:11;;;;;;;5.87;1.70;;;;;;;12.00;100.00;102420.88;5058354;28;21153;-87
2022/12/23 05:16:39;;;;;;;2.80;1.40;;;;;;;11.96;100.00;102430.44;5059332;28;20432;-87
2022/12/23 05:19:07;;;;;;;3.27;1.60;;;;;;;11.93;100.00;102425.31;5042366;28;20494;-88
2022/12/23 05:21:36;;;;;;;2.80;1.30;;;;;;;11.93;100.00;102431.59;5059205;28;20802;-87
2022/12/23 05:24:04;;;;;;;6.10;2.00;;;;;;;11.89;100.00;102440.34;5055200;28;20975;-88
2022/12/23 05:26:32;;;;;;;6.07;1.67;;;;;;;11.87;100.00;102437.75;5067843;28;20564;-87
2022/12/23 05:28:59;;;;;;;7.33;2.03;;;;;;;11.87;100.00;102447.84;5041281;28;20934;-88
2022/12/23 05:31:28;;;;;;;5.07;2.23;;;;;;;11.89;100.00;102457.63;5055636;28;20943;-88
2022/12/23 05:33:56;;;;;;;9.67;2.00;;;;;;;11.83;100.00;102447.31;5028850;28;20496;-87
2022/12/23 05:36:32;;;;;;;4.63;1.70;;;;;;;11.85;100.00;102458.09;5057310;28;20442;-88
2022/12/23 05:38:59;;;;;;;5.00;1.90;;;;;;;11.80;100.00;102457.72;5026067;28;20947;-87
2022/12/23 05:41:27;;;;;;;3.70;1.57;;;;;;;11.80;100.00;102454.97;5055035;28;20449;-87
2022/12/23 05:43:54;;;;;;;11.43;1.47;;;;;;;11.77;100.00;102459.75;5023759;28;20503;-88
2022/12/23 05:46:22;;;;;;;4.93;1.43;;;;;;;11.76;100.00;102463.50;5042537;28;20456;-88
2022/12/23 05:48:53;;;;;;;5.43;1.43;;;;;;;11.75;100.00;102467.22;5039172;28;20499;-88
2022/12/23 05:51:23;;;;;;;9.40;1.50;;;;;;;11.79;100.00;102456.00;5064559;28;20490;-87
2022/12/23 05:53:54;;;;;;;5.00;1.90;;;;;;;11.83;100.00;102457.41;5058650;28;20440;-88
2022/12/23 05:56:22;;;;;;;6.90;1.57;;;;;;;11.85;100.00;102460.84;5074127;28;20444;-88
2022/12/23 05:58:49;;;;;;;7.83;1.83;;;;;;;11.87;100.00;102469.78;5042206;28;20448;-87
2022/12/23 06:01:18;;;;;;;4.53;1.20;;;;;;;11.86;100.00;102468.03;5039064;28;20442;-88
2022/12/23 06:03:46;;;;;;;17.23;1.77;;;;;;;11.87;100.00;102475.25;5055952;28;20962;-88
2022/12/23 06:06:13;;;;;;;9.87;1.90;;;;;;;11.92;100.00;102484.72;5042102;28;20442;-88
2022/12/23 06:08:41;;;;;;;19.00;11.10;;;;;;;11.89;100.00;102468.59;5044325;28;20943;-88
2022/12/23 06:11:12;;;;;;;34.30;20.03;;;;;;;11.95;100.00;102472.56;5075470;28;20464;-88
2022/12/23 06:13:39;;;;;;;26.73;13.40;;;;;;;12.00;100.00;102481.16;5075118;28;20440;-88
2022/12/23 06:16:07;;;;;;;27.80;16.40;;;;;;;12.00;100.00;102470.19;5079122;28;20482;-87
2022/12/23 06:18:36;;;;;;;14.23;8.50;;;;;;;12.03;100.00;102472.63;5042491;28;20444;-88
2022/12/23 06:21:05;;;;;;;14.00;5.27;;;;;;;11.97;100.00;102467.78;5058724;28;20449;-87
2022/12/23 06:23:33;;;;;;;33.43;15.30;;;;;;;12.08;100.00;102473.00;5053531;28;20943;-90
2022/12/23 06:26:01;;;;;;;31.17;11.97;;;;;;;12.03;100.00;102465.25;5095132;28;20521;-88
2022/12/23 06:28:29;;;;;;;22.73;5.60;;;;;;;12.09;100.00;102470.09;5062391;28;20950;-88
2022/12/23 06:30:57;;;;;;;25.33;5.50;;;;;;;12.02;100.00;102458.06;5042141;28;20442;-88
2022/12/23 06:33:25;;;;;;;25.73;4.07;;;;;;;12.07;100.00;102471.28;5075106;28;20927;-87
2022/12/23 06:35:52;;;;;;;25.23;5.60;;;;;;;12.07;100.00;102482.25;5039127;28;20442;-88
2022/12/23 06:38:20;;;;;;;22.97;8.20;;;;;;;12.11;100.00;102478.16;5091597;28;20877;-88
2022/12/23 06:40:48;;;;;;;49.03;8.63;;;;;;;12.08;100.00;102467.53;5058440;28;20449;-88
2022/12/23 06:43:18;;;;;;;25.80;6.53;;;;;;;12.09;100.00;102456.41;4946851;28;20440;-88
2022/12/23 06:45:47;;;;;;;23.20;5.50;;;;;;;12.17;100.00;102451.97;4978679;28;21062;-87
2022/12/23 06:48:14;;;;;;;35.87;8.83;;;;;;;12.23;100.00;102459.56;4946578;28;20481;-88
2022/12/23 06:50:43;;;;;;;39.33;13.00;;;;;;;12.20;100.00;102448.91;4962306;28;20456;-88
2022/12/23 06:53:11;;;;;;;34.43;5.17;;;;;;;12.22;100.00;102453.22;4962890;28;20441;-87
2022/12/23 06:55:40;;;;;;;32.93;3.93;;;;;;;12.24;100.00;102448.44;4978210;28;20975;-88
2022/12/23 06:58:08;;;;;;;17.23;2.73;;;;;;;12.26;100.00;102454.59;4962774;28;20468;-88
2022/12/23 07:00:38;;;;;;;16.00;3.10;;;;;;;12.26;100.00;102457.34;4974153;28;20851;-88
2022/12/23 07:03:08;;;;;;;16.50;3.77;;;;;;;12.22;100.00;102447.72;5073008;28;20449;-88
2022/12/23 07:05:36;;;;;;;16.47;3.77;;;;;;;12.19;100.00;102455.41;5058093;28;20477;-88
2022/12/23 07:08:06;;;;;;;20.40;4.17;;;;;;;12.24;100.00;102462.13;5057120;28;20449;-88
2022/12/23 07:10:33;;;;;;;13.40;3.80;;;;;;;12.28;100.00;102460.78;5054501;28;20449;-88
2022/12/23 07:13:02;;;;;;;17.90;3.50;;;;;;;12.27;100.00;102461.81;5041142;28;20445;-88
2022/12/23 07:15:31;;;;;;;13.50;2.97;;;;;;;12.30;100.00;102464.25;5035338;28;20507;-89
2022/12/23 07:17:59;;;;;;;12.40;3.30;;;;;;;12.36;100.00;102470.94;5077605;28;20437;-87
2022/12/23 07:20:27;;;;;;;16.30;3.43;;;;;;;12.36;100.00;102480.00;5040894;28;20434;-87
2022/12/23 07:22:56;;;;;;;15.53;3.70;;;;;;;12.38;100.00;102474.38;5056990;28;20463;-88
2022/12/23 07:25:24;;;;;;;18.77;3.13;;;;;;;12.39;100.00;102476.94;5054450;28;20525;-89
2022/12/23 07:27:53;;;;;;;11.80;3.03;;;;;;;12.32;100.00;102464.91;5044953;28;20868;-88
2022/12/23 07:30:22;;;;;;;25.17;3.13;;;;;;;12.42;100.00;102476.63;5058407;28;20445;-89
2022/12/23 07:32:50;;;;;;;10.97;2.87;;;;;;;12.47;100.00;102487.13;5044668;28;20433;-89
2022/12/23 07:35:18;;;;;;;7.37;2.13;;;;;;;12.33;100.00;102466.63;5061357;28;20465;-88
2022/12/23 07:37:50;;;;;;;4.30;2.10;;;;;;;12.35;100.00;102469.19;5057015;28;20446;-88
2022/12/23 07:40:22;;;;;;;6.00;2.13;;;;;;;12.39;100.00;102493.41;5033433;28;20477;-89
2022/12/23 07:42:57;;;;;;;6.27;2.30;;;;;;;12.39;100.00;102482.44;5057040;28;20928;-88
2022/12/23 07:45:26;;;;;;;7.50;2.60;;;;;;;12.40;100.00;102475.06;5059794;28;20476;-88
2022/12/23 07:47:56;;;;;;;8.23;2.80;;;;;;;12.45;100.00;102481.78;5060625;28;20440;-88
2022/12/23 07:50:24;;;;;;;10.63;2.80;;;;;;;12.51;100.00;102487.66;5044809;28;20437;-88
2022/12/23 07:52:55;;;;;;;7.47;2.97;;;;;;;12.51;100.00;102482.16;5040830;28;20448;-88
2022/12/23 07:55:22;;;;;;;4.57;2.20;;;;;;;12.50;100.00;102478.56;5070180;28;20445;-89
2022/12/23 07:57:52;;;;;;;6.00;2.80;;;;;;;12.57;100.00;102484.22;5024507;28;20446;-88
2022/12/23 08:00:20;;;;;;;6.60;2.93;;;;;;;12.62;100.00;102487.34;5073220;28;20448;-88
2022/12/23 08:02:48;;;;;;;20.50;12.00;;;;;;;12.64;100.00;102477.94;5056614;28;20574;-88
2022/12/23 08:05:20;;;;;;;18.80;11.67;;;;;;;12.67;100.00;102480.34;5068222;28;20469;-87
2022/12/23 08:07:50;;;;;;;17.40;7.60;;;;;;;12.76;100.00;102490.31;5093433;28;20440;-88
2022/12/23 08:10:18;;;;;;;12.97;6.53;;;;;;;12.81;100.00;102503.56;5072833;28;20521;-88
2022/12/23 08:12:46;;;;;;;9.80;5.70;;;;;;;12.84;100.00;102507.84;4984141;28;20439;-88
2022/12/23 08:15:13;;;;;;;8.80;5.10;;;;;;;12.88;100.00;102512.00;4979939;28;20440;-88
2022/12/23 08:17:46;;;;;;;7.30;4.20;;;;;;;12.85;100.00;102502.19;5000646;28;20503;-88
2022/12/23 08:20:13;;;;;;;9.10;4.03;;;;;;;12.97;100.00;102522.81;4980515;28;20527;-88
2022/12/23 08:22:41;;;;;;;8.70;4.70;;;;;;;12.98;100.00;102527.28;4983741;28;20535;-88
2022/12/23 08:25:22;;;;;;;9.17;4.87;;;;;;;13.01;100.00;102535.19;5011538;28;20467;-88
2022/12/23 08:27:52;;;;;;;15.13;7.43;;;;;;;13.05;100.00;102533.84;4995997;28;20443;-88
2022/12/23 08:30:20;;;;;;;24.27;10.07;;;;;;;12.99;100.00;102529.00;4992464;28;20433;-87
2022/12/23 08:32:48;;;;;;;14.57;8.40;;;;;;;13.09;100.00;102543.44;4976599;28;20819;-88
2022/12/23 08:35:16;;;;;;;10.73;4.43;;;;;;;13.14;100.00;102542.94;4992808;28;20449;-88
2022/12/23 08:37:45;;;;;;;7.23;3.80;;;;;;;13.20;100.00;102550.56;5031600;28;20435;-88
2022/12/23 08:40:13;;;;;;;8.13;3.80;;;;;;;13.23;100.00;102552.13;5052626;28;20538;-88
2022/12/23 08:42:42;;;;;;;7.33;4.60;;;;;;;13.25;100.00;102539.09;5032792;28;20939;-88
2022/12/23 08:45:11;;;;;;;7.23;4.37;;;;;;;13.33;100.00;102542.69;5039534;28;20937;-87
2022/12/23 08:47:39;;;;;;;9.67;4.60;;;;;;;13.40;100.00;102548.38;5023933;28;20512;-88
2022/12/23 08:50:10;;;;;;;5.37;3.57;;;;;;;13.43;100.00;102545.31;5036400;28;20446;-88
2022/12/23 08:52:41;;;;;;;8.03;3.97;;;;;;;13.49;100.00;102559.19;5039371;28;20443;-88
2022/12/23 08:55:09;;;;;;;7.83;3.87;;;;;;;13.54;100.00;102563.34;5021342;28;20557;-88
2022/12/23 08:57:39;;;;;;;7.90;4.40;;;;;;;13.60;100.00;102559.94;5057005;28;20477;-88
2022/12/23 09:00:10;;;;;;;12.57;8.00;;;;;;;13.64;100.00;102559.44;5069418;28;20438;-89
2022/12/23 09:02:38;;;;;;;15.17;10.10;;;;;;;13.66;100.00;102557.34;5057226;28;20489;-90
2022/12/23 09:05:06;;;;;;;15.20;8.30;;;;;;;13.75;100.00;102564.56;5048028;28;20454;-90
2022/12/23 09:07:38;;;;;;;8.30;5.03;;;;;;;13.76;100.00;102546.19;5064286;28;20410;-90
2022/12/23 09:10:07;;;;;;;11.60;5.93;;;;;;;13.87;100.00;102555.97;5080204;28;20444;-90
2022/12/23 09:12:37;;;;;;;6.80;4.60;;;;;;;13.95;100.00;102558.75;5046160;28;20444;-89
2022/12/23 09:15:07;;;;;;;7.33;4.70;;;;;;;14.04;100.00;102558.59;5067682;28;20438;-88
2022/12/23 09:17:35;;;;;;;6.40;3.90;;;;;;;14.08;100.00;102545.34;5023042;28;20516;-88
2022/12/23 09:20:03;;;;;;;10.30;3.40;;;;;;;14.15;100.00;102529.88;5038404;28;20533;-87
2022/12/23 09:22:34;;;;;;;8.60;5.10;;;;;;;14.25;100.00;102518.66;5038774;28;20426;-89
2022/12/23 09:25:09;;;;;;;7.50;5.00;;;;;;;14.26;100.00;102510.25;5054617;28;20481;-88
2022/12/23 09:27:40;;;;;;;8.83;4.53;;;;;;;14.34;100.00;102521.25;5054012;28;20568;-90
2022/12/23 09:30:14;;;;;;;22.70;15.90;;;;;;;14.36;100.00;102530.19;5038526;28;20528;-88
2022/12/23 09:32:41;;;;;;;23.30;15.53;;;;;;;14.41;100.00;102527.81;5038160;28;20460;-88
2022/12/23 09:35:10;;;;;;;13.33;8.97;;;;;;;14.45;100.00;102534.66;5023206;28;20433;-89
2022/12/23 09:37:37;;;;;;;9.17;4.63;;;;;;;14.49;100.00;102536.03;5023449;28;20449;-89
2022/12/23 09:40:06;;;;;;;7.13;4.10;;;;;;;14.57;100.00;102543.41;5023466;28;20525;-92
2022/12/23 09:43:13;;;;;;;6.47;3.77;;;;;;;14.66;100.00;102541.47;5013430;28;20455;-92
2022/12/23 09:46:19;;;;;;;6.27;3.70;;;;;;;14.76;100.00;102547.66;5060986;28;20479;-92
2022/12/23 09:49:15;;;;;;;9.93;3.63;;;;;;;14.83;100.00;102554.16;5040768;28;20450;-91
2022/12/23 09:51:44;;;;;;;13.10;3.87;;;;;;;14.89;100.00;102549.84;5013969;28;20446;-92
2022/12/23 09:54:25;;;;;;;7.20;3.93;;;;;;;15.00;100.00;102553.06;5037070;28;20451;-91
2022/12/23 09:57:29;;;;;;;10.10;4.90;;;;;;;15.08;100.00;102546.66;5012548;28;20447;-92
2022/12/23 10:00:38;;;;;;;10.67;4.50;;;;;;;15.18;100.00;102561.94;5040558;28;20450;-92
2022/12/23 10:03:41;;;;;;;11.33;5.37;;;;;;;15.27;100.00;102567.41;5038602;28;20443;-92
2022/12/23 10:06:26;;;;;;;8.40;4.67;;;;;;;15.40;100.00;102584.19;5004141;28;20516;-88
2022/12/23 10:08:58;;;;;;;11.60;4.50;;;;;;;15.45;100.00;102576.25;5011662;28;20491;-88
2022/12/23 10:11:36;;;;;;;11.57;5.87;;;;;;;15.48;100.00;102575.88;4994614;28;21046;-89
2022/12/23 10:14:30;;;;;;;9.70;4.97;;;;;;;15.51;100.00;102570.88;4995569;28;20979;-88
2022/12/23 10:17:01;;;;;;;12.90;5.00;;;;;;;15.57;100.00;102580.34;4994158;28;20963;-88
2022/12/23 10:19:48;;;;;;;11.27;4.53;;;;;;;15.64;100.00;102575.81;5002645;28;20445;-88
2022/12/23 10:22:21;;;;;;;14.77;6.87;;;;;;;15.71;100.00;102571.28;4979434;28;20528;-88
2022/12/23 10:24:50;;;;;;;16.80;5.50;;;;;;;15.82;100.00;102567.25;4995155;28;20456;-92
2022/12/23 10:27:45;;;;;;;12.20;5.90;;;;;;;15.93;100.00;102571.50;4979959;28;20473;-91
2022/12/23 10:30:19;;;;;;;14.50;6.00;;;;;;;16.06;100.00;102566.19;4995877;28;20445;-92
2022/12/23 10:33:49;;;;;;;14.93;5.30;;;;;;;16.20;100.00;102570.91;4994123;28;20531;-91
2022/12/23 10:36:39;;;;;;;16.40;5.33;;;;;;;16.26;100.00;102570.16;4995985;28;20548;-92
2022/12/23 10:39:44;;;;;;;20.83;6.30;;;;;;;16.38;100.00;102567.78;4981726;28;20440;-92
2022/12/23 10:42:49;;;;;;;13.43;6.17;;;;;;;16.46;100.00;102565.81;5009457;28;20439;-92
2022/12/23 10:45:36;;;;;;;12.23;5.27;;;;;;;16.56;100.00;102551.72;5010686;28;20655;-91
2022/12/23 10:48:40;;;;;;;9.77;4.53;;;;;;;16.66;100.00;102560.66;4999657;28;20444;-92
2022/12/23 10:51:27;;;;;;;12.50;5.70;;;;;;;16.73;100.00;102558.84;4979095;28;20455;-92
2022/12/23 10:54:17;;;;;;;14.47;5.20;;;;;;;16.80;100.00;102545.13;4998834;28;20531;-92
2022/12/23 10:56:53;;;;;;;15.00;4.90;;;;;;;16.85;100.00;102532.44;5034916;28;20877;-90
2022/12/23 10:59:33;;;;;;;10.50;4.90;;;;;;;16.91;100.00;102528.09;4986518;28;20471;-91
2022/12/23 11:02:56;;;;;;;17.03;5.87;;;;;;;17.01;100.00;102536.91;4997315;28;20970;-91
2022/12/23 11:05:46;;;;;;;18.00;5.40;;;;;;;17.10;100.00;102538.53;4971875;28;20899;-91
2022/12/23 11:08:14;;;;;;;16.43;5.87;;;;;;;17.18;100.00;102527.34;4997091;28;20975;-90
2022/12/23 11:10:41;;;;;;;13.40;5.60;;;;;;;17.23;100.00;102524.88;4966451;28;20471;-93
2022/12/23 11:13:35;;;;;;;13.93;5.40;;;;;;;17.35;100.00;102535.41;4982691;28;20433;-93
2022/12/23 11:16:27;;;;;;;12.30;5.00;;;;;;;17.38;100.00;102526.72;4998118;28;20443;-93
2022/12/23 11:19:14;;;;;;;22.83;5.40;;;;;;;17.39;100.00;102520.16;5014050;28;20444;-93
2022/12/23 11:21:54;;;;;;;9.30;4.30;;;;;;;17.43;100.00;102510.41;4982075;28;20810;-91
2022/12/23 11:24:25;;;;;;;17.40;6.17;;;;;;;17.44;100.00;102509.38;4977934;28;20441;-92
2022/12/23 11:27:05;;;;;;;15.33;6.00;;;;;;;17.58;100.00;102505.69;5020715;28;20864;-90
2022/12/23 11:30:08;;;;;;;15.83;5.47;;;;;;;17.69;100.00;102501.59;4982103;28;20450;-93
2022/12/23 11:32:36;;;;;;;15.30;5.37;;;;;;;17.72;100.00;102485.44;5014405;28;20846;-90
2022/12/23 11:35:04;;;;;;;34.90;18.73;;;;;;;17.80;100.00;102481.69;4995680;28;20453;-90
2022/12/23 11:37:43;;;;;;;43.10;19.33;;;;;;;17.93;100.00;102474.34;5007017;28;20479;-89
2022/12/23 11:40:27;;;;;;;22.90;12.10;;;;;;;18.04;100.00;102472.09;5067990;28;20443;-90
2022/12/23 11:43:03;;;;;;;36.27;17.57;;;;;;;18.19;100.00;102459.00;5014638;28;20496;-89
2022/12/23 11:45:35;;;;;;;40.80;25.03;;;;;;;18.28;100.00;102453.09;5008599;28;20477;-89
2022/12/23 11:48:27;;;;;;;34.50;18.03;;;;;;;18.41;100.00;102452.34;5051354;28;20437;-92
2022/12/23 11:51:00;;;;;;;25.73;15.80;;;;;;;18.45;100.00;102447.25;5059162;28;20445;-89
2022/12/23 12:05:28;;;;;;;69.00;35.93;;;;;;;18.80;100.00;102437.88;5076027;28;20394;-90
2022/12/23 12:08:13;;;;;;;56.93;30.87;;;;;;;18.79;100.00;102433.41;5058326;28;20590;-90
2022/12/23 12:18:18;;;;;;;42.17;26.43;;;;;;;18.84;100.00;102418.94;5075640;28;21011;-90
2022/12/23 12:20:55;;;;;;;32.00;16.70;;;;;;;18.89;100.00;102421.91;5040766;28;20433;-90
2022/12/23 12:27:10;;;;;;;12.33;5.27;;;;;;;18.89;100.00;102417.22;5089707;28;20479;-90
2022/12/23 12:29:47;;;;;;;9.67;4.60;;;;;;;18.87;100.00;102418.50;5045104;28;20469;-90
2022/12/23 12:32:42;;;;;;;21.27;8.67;;;;;;;18.93;100.00;102412.97;5045207;28;20858;-89
2022/12/23 12:35:17;;;;;;;11.47;5.53;;;;;;;18.94;100.00;102398.06;5049450;28;20439;-89